Matapedia, Canada
Current Conditions -  °F | °C
As of 6:19 AM on Saturday 20 Dec 2014 (Local Time) from CZBF Reporting Station
Snow Showers Snow Showers  
Wind Chill: 21°   Ceiling: 1800
Heat Index: 21°   Visibility: 15mi
Dew Point: 18°   Wind: 2mph
Humidity: 86%   Direction: 330°NNW
Pressure: 30.27"   Gusts: NA
Location:  47.98°N, 66.96°W
Report Text: CZBF 201019Z 33002KT 15SM -SHSN OVC018 M06/M08 A3027 RMK SC8 SLP256
Loading
Personal Weather Stations






























Interactive Weather Map New forecast layout! Learn more

10-Day Weather Forecast

Advertisements
Track Severe Weather on mobile